sensor_id;sensor_type;location;lat;lon;timestamp;temperature;humidity
39401;SHT31;75540;50.000;7.360;2024-02-04T00:00:25;6.83;98.71
39401;SHT31;75540;50.000;7.360;2024-02-04T00:02:53;6.86;98.64
39401;SHT31;75540;50.000;7.360;2024-02-04T00:05:22;6.84;98.70
39401;SHT31;75540;50.000;7.360;2024-02-04T00:07:51;6.80;98.63
39401;SHT31;75540;50.000;7.360;2024-02-04T00:10:20;6.80;98.71
39401;SHT31;75540;50.000;7.360;2024-02-04T00:12:48;6.80;98.71
39401;SHT31;75540;50.000;7.360;2024-02-04T00:15:16;6.83;98.72
39401;SHT31;75540;50.000;7.360;2024-02-04T00:17:46;6.77;98.75
39401;SHT31;75540;50.000;7.360;2024-02-04T00:20:14;6.79;98.82
39401;SHT31;75540;50.000;7.360;2024-02-04T00:22:43;6.79;98.84
39401;SHT31;75540;50.000;7.360;2024-02-04T00:25:12;6.79;98.88
39401;SHT31;75540;50.000;7.360;2024-02-04T00:27:42;6.80;98.88
39401;SHT31;75540;50.000;7.360;2024-02-04T00:30:11;6.80;98.86
39401;SHT31;75540;50.000;7.360;2024-02-04T00:32:39;6.77;98.85
39401;SHT31;75540;50.000;7.360;2024-02-04T00:35:08;6.74;98.93
39401;SHT31;75540;50.000;7.360;2024-02-04T00:37:36;6.80;98.98
39401;SHT31;75540;50.000;7.360;2024-02-04T00:40:05;6.76;98.95
39401;SHT31;75540;50.000;7.360;2024-02-04T00:42:35;6.73;98.95
39401;SHT31;75540;50.000;7.360;2024-02-04T00:45:04;6.76;98.90
39401;SHT31;75540;50.000;7.360;2024-02-04T00:47:33;6.76;98.90
39401;SHT31;75540;50.000;7.360;2024-02-04T00:50:01;6.77;98.91
39401;SHT31;75540;50.000;7.360;2024-02-04T00:52:29;6.76;98.85
39401;SHT31;75540;50.000;7.360;2024-02-04T00:54:58;6.77;98.87
39401;SHT31;75540;50.000;7.360;2024-02-04T00:57:26;6.77;98.86
39401;SHT31;75540;50.000;7.360;2024-02-04T00:59:56;6.80;98.81
39401;SHT31;75540;50.000;7.360;2024-02-04T01:02:24;6.79;98.73
39401;SHT31;75540;50.000;7.360;2024-02-04T01:04:52;6.79;98.71
39401;SHT31;75540;50.000;7.360;2024-02-04T01:07:21;6.77;98.71
39401;SHT31;75540;50.000;7.360;2024-02-04T01:09:50;6.80;98.66
39401;SHT31;75540;50.000;7.360;2024-02-04T01:12:18;6.77;98.64
39401;SHT31;75540;50.000;7.360;2024-02-04T01:14:47;6.76;98.59
39401;SHT31;75540;50.000;7.360;2024-02-04T01:17:16;6.81;98.58
39401;SHT31;75540;50.000;7.360;2024-02-04T01:19:45;6.77;98.56
39401;SHT31;75540;50.000;7.360;2024-02-04T01:22:13;6.79;98.53
39401;SHT31;75540;50.000;7.360;2024-02-04T01:24:41;6.79;98.51
39401;SHT31;75540;50.000;7.360;2024-02-04T01:27:10;6.80;98.44
39401;SHT31;75540;50.000;7.360;2024-02-04T01:29:38;6.79;98.38
39401;SHT31;75540;50.000;7.360;2024-02-04T01:32:07;6.81;98.41
39401;SHT31;75540;50.000;7.360;2024-02-04T01:34:36;6.79;98.36
39401;SHT31;75540;50.000;7.360;2024-02-04T01:37:05;6.81;98.34
39401;SHT31;75540;50.000;7.360;2024-02-04T01:39:33;6.79;98.32
39401;SHT31;75540;50.000;7.360;2024-02-04T01:42:02;6.80;98.33
39401;SHT31;75540;50.000;7.360;2024-02-04T01:44:32;6.79;98.39
39401;SHT31;75540;50.000;7.360;2024-02-04T01:47:00;6.80;98.32
39401;SHT31;75540;50.000;7.360;2024-02-04T01:49:29;6.79;98.33
39401;SHT31;75540;50.000;7.360;2024-02-04T01:51:59;6.80;98.29
39401;SHT31;75540;50.000;7.360;2024-02-04T01:54:30;6.80;98.34
39401;SHT31;75540;50.000;7.360;2024-02-04T01:56:59;6.79;98.31
39401;SHT31;75540;50.000;7.360;2024-02-04T01:59:29;6.80;98.38
39401;SHT31;75540;50.000;7.360;2024-02-04T02:01:59;6.79;98.34
39401;SHT31;75540;50.000;7.360;2024-02-04T02:04:27;6.81;98.30
39401;SHT31;75540;50.000;7.360;2024-02-04T02:06:56;6.80;98.30
39401;SHT31;75540;50.000;7.360;2024-02-04T02:09:28;6.77;98.32
39401;SHT31;75540;50.000;7.360;2024-02-04T02:12:03;6.77;98.33
39401;SHT31;75540;50.000;7.360;2024-02-04T02:14:38;6.80;98.25
39401;SHT31;75540;50.000;7.360;2024-02-04T02:17:11;6.81;98.19
39401;SHT31;75540;50.000;7.360;2024-02-04T02:19:50;6.79;98.31
39401;SHT31;75540;50.000;7.360;2024-02-04T02:22:26;6.76;98.27
39401;SHT31;75540;50.000;7.360;2024-02-04T02:24:57;6.77;98.38
39401;SHT31;75540;50.000;7.360;2024-02-04T02:27:26;6.73;98.41
39401;SHT31;75540;50.000;7.360;2024-02-04T02:29:55;6.73;98.38
39401;SHT31;75540;50.000;7.360;2024-02-04T02:32:23;6.74;98.38
39401;SHT31;75540;50.000;7.360;2024-02-04T02:34:52;6.73;98.50
39401;SHT31;75540;50.000;7.360;2024-02-04T02:37:26;6.72;98.51
39401;SHT31;75540;50.000;7.360;2024-02-04T02:40:01;6.70;98.57
39401;SHT31;75540;50.000;7.360;2024-02-04T02:42:32;6.70;98.60
39401;SHT31;75540;50.000;7.360;2024-02-04T02:45:01;6.72;98.55
39401;SHT31;75540;50.000;7.360;2024-02-04T02:47:30;6.76;98.59
39401;SHT31;75540;50.000;7.360;2024-02-04T02:50:00;6.69;98.61
39401;SHT31;75540;50.000;7.360;2024-02-04T02:52:29;6.69;98.58
39401;SHT31;75540;50.000;7.360;2024-02-04T02:54:58;6.69;98.61
39401;SHT31;75540;50.000;7.360;2024-02-04T02:57:27;6.72;98.63
39401;SHT31;75540;50.000;7.360;2024-02-04T02:59:55;6.69;98.60
39401;SHT31;75540;50.000;7.360;2024-02-04T03:02:23;6.69;98.64
39401;SHT31;75540;50.000;7.360;2024-02-04T03:04:51;6.66;98.49
39401;SHT31;75540;50.000;7.360;2024-02-04T03:07:20;6.67;98.51
39401;SHT31;75540;50.000;7.360;2024-02-04T03:09:48;6.70;98.48
39401;SHT31;75540;50.000;7.360;2024-02-04T03:12:18;6.70;98.50
39401;SHT31;75540;50.000;7.360;2024-02-04T03:14:46;6.70;98.46
39401;SHT31;75540;50.000;7.360;2024-02-04T03:17:14;6.67;98.52
39401;SHT31;75540;50.000;7.360;2024-02-04T03:19:49;6.66;98.50
39401;SHT31;75540;50.000;7.360;2024-02-04T03:22:19;6.69;98.47
39401;SHT31;75540;50.000;7.360;2024-02-04T03:24:49;6.69;98.51
39401;SHT31;75540;50.000;7.360;2024-02-04T03:27:19;6.67;98.54
39401;SHT31;75540;50.000;7.360;2024-02-04T03:29:48;6.69;98.56
39401;SHT31;75540;50.000;7.360;2024-02-04T03:32:16;6.70;98.50
39401;SHT31;75540;50.000;7.360;2024-02-04T03:34:44;6.69;98.60
39401;SHT31;75540;50.000;7.360;2024-02-04T03:37:13;6.66;98.58
39401;SHT31;75540;50.000;7.360;2024-02-04T03:39:41;6.70;98.55
39401;SHT31;75540;50.000;7.360;2024-02-04T03:42:10;6.69;98.46
39401;SHT31;75540;50.000;7.360;2024-02-04T03:44:40;6.70;98.41
39401;SHT31;75540;50.000;7.360;2024-02-04T03:47:08;6.69;98.47
39401;SHT31;75540;50.000;7.360;2024-02-04T03:49:36;6.70;98.45
39401;SHT31;75540;50.000;7.360;2024-02-04T03:52:05;6.70;98.51
39401;SHT31;75540;50.000;7.360;2024-02-04T03:54:33;6.70;98.58
39401;SHT31;75540;50.000;7.360;2024-02-04T03:57:02;6.70;98.56
39401;SHT31;75540;50.000;7.360;2024-02-04T03:59:30;6.70;98.52
39401;SHT31;75540;50.000;7.360;2024-02-04T04:02:00;6.69;98.61
39401;SHT31;75540;50.000;7.360;2024-02-04T04:04:28;6.70;98.65
39401;SHT31;75540;50.000;7.360;2024-02-04T04:06:57;6.69;98.64
39401;SHT31;75540;50.000;7.360;2024-02-04T04:09:25;6.67;98.70
39401;SHT31;75540;50.000;7.360;2024-02-04T04:11:54;6.70;98.65
39401;SHT31;75540;50.000;7.360;2024-02-04T04:14:22;6.69;98.68
39401;SHT31;75540;50.000;7.360;2024-02-04T04:16:50;6.69;98.71
39401;SHT31;75540;50.000;7.360;2024-02-04T04:19:20;6.69;98.76
39401;SHT31;75540;50.000;7.360;2024-02-04T04:21:48;6.70;98.71
39401;SHT31;75540;50.000;7.360;2024-02-04T04:24:17;6.70;98.66
39401;SHT31;75540;50.000;7.360;2024-02-04T04:26:46;6.73;98.65
39401;SHT31;75540;50.000;7.360;2024-02-04T04:29:15;6.67;98.73
39401;SHT31;75540;50.000;7.360;2024-02-04T04:31:43;6.72;98.68
39401;SHT31;75540;50.000;7.360;2024-02-04T04:34:12;6.72;98.63
39401;SHT31;75540;50.000;7.360;2024-02-04T04:36:42;6.73;98.62
39401;SHT31;75540;50.000;7.360;2024-02-04T04:39:10;6.76;98.61
39401;SHT31;75540;50.000;7.360;2024-02-04T04:41:40;6.76;98.50
39401;SHT31;75540;50.000;7.360;2024-02-04T04:44:08;6.76;98.42
39401;SHT31;75540;50.000;7.360;2024-02-04T04:46:37;6.73;98.51
39401;SHT31;75540;50.000;7.360;2024-02-04T04:49:06;6.77;98.47
39401;SHT31;75540;50.000;7.360;2024-02-04T04:51:36;6.73;98.46
39401;SHT31;75540;50.000;7.360;2024-02-04T04:54:05;6.76;98.45
39401;SHT31;75540;50.000;7.360;2024-02-04T04:56:38;6.73;98.47
39401;SHT31;75540;50.000;7.360;2024-02-04T04:59:09;6.79;98.45
39401;SHT31;75540;50.000;7.360;2024-02-04T05:01:37;6.79;98.41
39401;SHT31;75540;50.000;7.360;2024-02-04T05:04:12;6.77;98.35
39401;SHT31;75540;50.000;7.360;2024-02-04T05:06:41;6.77;98.47
39401;SHT31;75540;50.000;7.360;2024-02-04T05:09:11;6.79;98.39
39401;SHT31;75540;50.000;7.360;2024-02-04T05:11:39;6.76;98.37
39401;SHT31;75540;50.000;7.360;2024-02-04T05:14:07;6.80;98.32
39401;SHT31;75540;50.000;7.360;2024-02-04T05:16:36;6.84;98.25
39401;SHT31;75540;50.000;7.360;2024-02-04T05:19:04;6.81;98.20
39401;SHT31;75540;50.000;7.360;2024-02-04T05:21:32;6.80;98.14
39401;SHT31;75540;50.000;7.360;2024-02-04T05:24:01;6.83;98.04
39401;SHT31;75540;50.000;7.360;2024-02-04T05:26:30;6.87;97.98
39401;SHT31;75540;50.000;7.360;2024-02-04T05:28:59;6.87;97.91
39401;SHT31;75540;50.000;7.360;2024-02-04T05:31:27;6.87;97.88
39401;SHT31;75540;50.000;7.360;2024-02-04T05:33:56;6.86;97.87
39401;SHT31;75540;50.000;7.360;2024-02-04T05:36:24;6.84;97.81
39401;SHT31;75540;50.000;7.360;2024-02-04T05:38:52;6.86;97.85
39401;SHT31;75540;50.000;7.360;2024-02-04T05:41:21;6.87;97.75
39401;SHT31;75540;50.000;7.360;2024-02-04T05:43:51;6.87;97.73
39401;SHT31;75540;50.000;7.360;2024-02-04T05:46:19;6.83;97.70
39401;SHT31;75540;50.000;7.360;2024-02-04T05:48:48;6.87;97.66
39401;SHT31;75540;50.000;7.360;2024-02-04T05:51:16;6.90;97.70
39401;SHT31;75540;50.000;7.360;2024-02-04T05:53:45;6.88;97.62
39401;SHT31;75540;50.000;7.360;2024-02-04T05:56:13;6.87;97.57
39401;SHT31;75540;50.000;7.360;2024-02-04T05:58:41;6.87;97.64
39401;SHT31;75540;50.000;7.360;2024-02-04T06:01:11;6.88;97.57
39401;SHT31;75540;50.000;7.360;2024-02-04T06:03:41;6.88;97.49
39401;SHT31;75540;50.000;7.360;2024-02-04T06:06:14;6.90;97.48
39401;SHT31;75540;50.000;7.360;2024-02-04T06:08:43;6.88;97.40
39401;SHT31;75540;50.000;7.360;2024-02-04T06:11:12;6.90;97.42
39401;SHT31;75540;50.000;7.360;2024-02-04T06:13:41;6.93;97.31
39401;SHT31;75540;50.000;7.360;2024-02-04T06:16:11;6.91;97.25
39401;SHT31;75540;50.000;7.360;2024-02-04T06:18:40;6.94;97.20
39401;SHT31;75540;50.000;7.360;2024-02-04T06:21:08;6.94;97.10
39401;SHT31;75540;50.000;7.360;2024-02-04T06:23:38;6.97;97.07
39401;SHT31;75540;50.000;7.360;2024-02-04T06:26:06;6.96;97.03
39401;SHT31;75540;50.000;7.360;2024-02-04T06:28:35;6.94;96.93
39401;SHT31;75540;50.000;7.360;2024-02-04T06:31:04;6.96;96.84
39401;SHT31;75540;50.000;7.360;2024-02-04T06:33:33;6.97;96.77
39401;SHT31;75540;50.000;7.360;2024-02-04T06:36:02;6.97;96.84
39401;SHT31;75540;50.000;7.360;2024-02-04T06:38:31;6.96;96.81
39401;SHT31;75540;50.000;7.360;2024-02-04T06:40:59;6.96;96.82
39401;SHT31;75540;50.000;7.360;2024-02-04T06:43:27;7.01;96.76
39401;SHT31;75540;50.000;7.360;2024-02-04T06:45:55;6.96;96.73
39401;SHT31;75540;50.000;7.360;2024-02-04T06:48:23;6.97;96.72
39401;SHT31;75540;50.000;7.360;2024-02-04T06:50:52;6.94;96.65
39401;SHT31;75540;50.000;7.360;2024-02-04T06:53:21;6.96;96.71
39401;SHT31;75540;50.000;7.360;2024-02-04T06:55:49;6.97;96.65
39401;SHT31;75540;50.000;7.360;2024-02-04T06:58:17;6.96;96.58
39401;SHT31;75540;50.000;7.360;2024-02-04T07:00:46;6.97;96.53
39401;SHT31;75540;50.000;7.360;2024-02-04T07:03:16;6.97;96.48
39401;SHT31;75540;50.000;7.360;2024-02-04T07:05:44;7.00;96.41
39401;SHT31;75540;50.000;7.360;2024-02-04T07:08:15;7.00;96.30
39401;SHT31;75540;50.000;7.360;2024-02-04T07:10:44;7.05;96.29
39401;SHT31;75540;50.000;7.360;2024-02-04T07:13:12;7.01;96.35
39401;SHT31;75540;50.000;7.360;2024-02-04T07:15:41;7.01;96.34
39401;SHT31;75540;50.000;7.360;2024-02-04T07:18:09;7.01;96.32
39401;SHT31;75540;50.000;7.360;2024-02-04T07:20:38;7.04;96.41
39401;SHT31;75540;50.000;7.360;2024-02-04T07:23:06;7.01;96.38
39401;SHT31;75540;50.000;7.360;2024-02-04T07:25:36;7.04;96.49
39401;SHT31;75540;50.000;7.360;2024-02-04T07:28:05;7.03;96.42
39401;SHT31;75540;50.000;7.360;2024-02-04T07:30:33;7.00;96.54
39401;SHT31;75540;50.000;7.360;2024-02-04T07:33:02;7.00;96.48
39401;SHT31;75540;50.000;7.360;2024-02-04T07:35:30;7.03;96.50
39401;SHT31;75540;50.000;7.360;2024-02-04T07:37:59;7.03;96.49
39401;SHT31;75540;50.000;7.360;2024-02-04T07:40:27;7.05;96.43
39401;SHT31;75540;50.000;7.360;2024-02-04T07:42:58;7.00;96.49
39401;SHT31;75540;50.000;7.360;2024-02-04T07:45:27;7.01;96.69
39401;SHT31;75540;50.000;7.360;2024-02-04T07:47:55;6.98;96.69
39401;SHT31;75540;50.000;7.360;2024-02-04T07:50:23;7.01;96.75
39401;SHT31;75540;50.000;7.360;2024-02-04T07:52:52;7.01;96.72
39401;SHT31;75540;50.000;7.360;2024-02-04T07:55:20;7.01;96.81
39401;SHT31;75540;50.000;7.360;2024-02-04T07:57:49;7.00;96.82
39401;SHT31;75540;50.000;7.360;2024-02-04T08:00:19;7.01;96.85
39401;SHT31;75540;50.000;7.360;2024-02-04T08:02:47;7.04;96.86
39401;SHT31;75540;50.000;7.360;2024-02-04T08:05:16;7.01;96.82
39401;SHT31;75540;50.000;7.360;2024-02-04T08:07:45;7.04;96.82
39401;SHT31;75540;50.000;7.360;2024-02-04T08:10:13;7.04;96.83
39401;SHT31;75540;50.000;7.360;2024-02-04T08:12:43;7.05;96.83
39401;SHT31;75540;50.000;7.360;2024-02-04T08:15:11;7.05;96.80
39401;SHT31;75540;50.000;7.360;2024-02-04T08:17:41;7.08;96.84
39401;SHT31;75540;50.000;7.360;2024-02-04T08:20:10;7.07;96.82
39401;SHT31;75540;50.000;7.360;2024-02-04T08:22:39;7.12;96.74
39401;SHT31;75540;50.000;7.360;2024-02-04T08:25:07;7.12;96.45
39401;SHT31;75540;50.000;7.360;2024-02-04T08:27:38;7.18;96.46
39401;SHT31;75540;50.000;7.360;2024-02-04T08:30:07;7.21;96.42
39401;SHT31;75540;50.000;7.360;2024-02-04T08:32:38;7.21;96.38
39401;SHT31;75540;50.000;7.360;2024-02-04T08:35:08;7.19;96.30
39401;SHT31;75540;50.000;7.360;2024-02-04T08:37:37;7.21;96.29
39401;SHT31;75540;50.000;7.360;2024-02-04T08:40:06;7.19;96.30
39401;SHT31;75540;50.000;7.360;2024-02-04T08:42:35;7.18;96.21
39401;SHT31;75540;50.000;7.360;2024-02-04T08:45:05;7.17;96.27
39401;SHT31;75540;50.000;7.360;2024-02-04T08:47:34;7.18;96.33
39401;SHT31;75540;50.000;7.360;2024-02-04T08:50:02;7.22;96.43
39401;SHT31;75540;50.000;7.360;2024-02-04T08:52:32;7.19;96.51
39401;SHT31;75540;50.000;7.360;2024-02-04T08:55:01;7.21;96.68
39401;SHT31;75540;50.000;7.360;2024-02-04T08:57:31;7.15;96.76
39401;SHT31;75540;50.000;7.360;2024-02-04T08:59:59;7.14;97.05
39401;SHT31;75540;50.000;7.360;2024-02-04T09:02:27;7.18;97.07
39401;SHT31;75540;50.000;7.360;2024-02-04T09:04:56;7.24;97.09
39401;SHT31;75540;50.000;7.360;2024-02-04T09:07:24;7.22;97.03
39401;SHT31;75540;50.000;7.360;2024-02-04T09:09:56;7.27;97.03
39401;SHT31;75540;50.000;7.360;2024-02-04T09:12:24;7.22;97.05
39401;SHT31;75540;50.000;7.360;2024-02-04T09:14:53;7.24;97.08
39401;SHT31;75540;50.000;7.360;2024-02-04T09:17:21;7.29;97.02
39401;SHT31;75540;50.000;7.360;2024-02-04T09:19:50;7.31;97.05
39401;SHT31;75540;50.000;7.360;2024-02-04T09:22:19;7.27;96.96
39401;SHT31;75540;50.000;7.360;2024-02-04T09:24:47;7.29;97.10
39401;SHT31;75540;50.000;7.360;2024-02-04T09:27:17;7.28;97.12
39401;SHT31;75540;50.000;7.360;2024-02-04T09:29:46;7.24;97.07
39401;SHT31;75540;50.000;7.360;2024-02-04T09:32:15;7.25;97.10
39401;SHT31;75540;50.000;7.360;2024-02-04T09:34:45;7.27;97.09
39401;SHT31;75540;50.000;7.360;2024-02-04T09:37:13;7.28;97.11
39401;SHT31;75540;50.000;7.360;2024-02-04T09:39:43;7.27;97.12
39401;SHT31;75540;50.000;7.360;2024-02-04T09:42:20;7.27;97.06
39401;SHT31;75540;50.000;7.360;2024-02-04T09:44:50;7.25;96.99
39401;SHT31;75540;50.000;7.360;2024-02-04T09:47:18;7.28;96.92
39401;SHT31;75540;50.000;7.360;2024-02-04T09:49:47;7.22;96.98
39401;SHT31;75540;50.000;7.360;2024-02-04T09:52:18;7.24;96.98
39401;SHT31;75540;50.000;7.360;2024-02-04T09:54:49;7.25;97.12
39401;SHT31;75540;50.000;7.360;2024-02-04T09:57:20;7.24;97.19
39401;SHT31;75540;50.000;7.360;2024-02-04T09:59:48;7.27;97.30
39401;SHT31;75540;50.000;7.360;2024-02-04T10:02:17;7.27;97.36
39401;SHT31;75540;50.000;7.360;2024-02-04T10:04:48;7.28;97.31
39401;SHT31;75540;50.000;7.360;2024-02-04T10:07:17;7.22;97.49
39401;SHT31;75540;50.000;7.360;2024-02-04T10:09:47;7.27;97.60
39401;SHT31;75540;50.000;7.360;2024-02-04T10:12:16;7.19;97.72
39401;SHT31;75540;50.000;7.360;2024-02-04T10:14:46;7.21;97.84
39401;SHT31;75540;50.000;7.360;2024-02-04T10:17:15;7.22;97.94
39401;SHT31;75540;50.000;7.360;2024-02-04T10:19:43;7.19;97.92
39401;SHT31;75540;50.000;7.360;2024-02-04T10:22:12;7.22;97.79
39401;SHT31;75540;50.000;7.360;2024-02-04T10:24:40;7.19;97.84
39401;SHT31;75540;50.000;7.360;2024-02-04T10:27:10;7.21;97.86
39401;SHT31;75540;50.000;7.360;2024-02-04T10:29:50;7.22;97.79
39401;SHT31;75540;50.000;7.360;2024-02-04T10:32:21;7.28;97.83
39401;SHT31;75540;50.000;7.360;2024-02-04T10:34:51;7.27;97.77
39401;SHT31;75540;50.000;7.360;2024-02-04T10:37:20;7.22;97.70
39401;SHT31;75540;50.000;7.360;2024-02-04T10:39:48;7.18;97.79
39401;SHT31;75540;50.000;7.360;2024-02-04T10:42:17;7.22;98.01
39401;SHT31;75540;50.000;7.360;2024-02-04T10:44:53;7.27;97.99
39401;SHT31;75540;50.000;7.360;2024-02-04T10:47:23;7.27;97.97
39401;SHT31;75540;50.000;7.360;2024-02-04T10:49:52;7.24;98.01
39401;SHT31;75540;50.000;7.360;2024-02-04T10:52:22;7.21;98.00
39401;SHT31;75540;50.000;7.360;2024-02-04T10:54:52;7.25;98.00
39401;SHT31;75540;50.000;7.360;2024-02-04T10:57:21;7.31;98.03
39401;SHT31;75540;50.000;7.360;2024-02-04T10:59:52;7.32;97.94
39401;SHT31;75540;50.000;7.360;2024-02-04T11:02:21;7.27;97.92
39401;SHT31;75540;50.000;7.360;2024-02-04T11:04:50;7.28;98.08
39401;SHT31;75540;50.000;7.360;2024-02-04T11:07:21;7.32;98.05
39401;SHT31;75540;50.000;7.360;2024-02-04T11:09:50;7.28;98.04
39401;SHT31;75540;50.000;7.360;2024-02-04T11:12:20;7.34;98.11
39401;SHT31;75540;50.000;7.360;2024-02-04T11:14:54;7.32;98.05
39401;SHT31;75540;50.000;7.360;2024-02-04T11:20:48;7.36;98.05
39401;SHT31;75540;50.000;7.360;2024-02-04T11:23:36;7.38;97.97
39401;SHT31;75540;50.000;7.360;2024-02-04T11:26:06;7.31;97.95
39401;SHT31;75540;50.000;7.360;2024-02-04T11:28:35;7.28;97.94
39401;SHT31;75540;50.000;7.360;2024-02-04T11:31:13;7.34;98.15
39401;SHT31;75540;50.000;7.360;2024-02-04T11:33:42;7.31;98.08
39401;SHT31;75540;50.000;7.360;2024-02-04T11:36:13;7.32;98.03
39401;SHT31;75540;50.000;7.360;2024-02-04T11:38:42;7.35;97.90
39401;SHT31;75540;50.000;7.360;2024-02-04T11:41:21;7.39;97.91
39401;SHT31;75540;50.000;7.360;2024-02-04T11:43:52;7.42;97.87
39401;SHT31;75540;50.000;7.360;2024-02-04T11:46:30;7.45;97.79
39401;SHT31;75540;50.000;7.360;2024-02-04T11:49:00;7.49;97.79
39401;SHT31;75540;50.000;7.360;2024-02-04T11:51:29;7.44;97.85
39401;SHT31;75540;50.000;7.360;2024-02-04T11:53:58;7.45;97.93
39401;SHT31;75540;50.000;7.360;2024-02-04T11:56:28;7.49;97.92
39401;SHT31;75540;50.000;7.360;2024-02-04T11:58:57;7.48;97.90
39401;SHT31;75540;50.000;7.360;2024-02-04T12:01:26;7.51;97.95
39401;SHT31;75540;50.000;7.360;2024-02-04T12:03:56;7.49;97.98
39401;SHT31;75540;50.000;7.360;2024-02-04T12:06:25;7.48;97.95
39401;SHT31;75540;50.000;7.360;2024-02-04T12:08:53;7.52;98.00
39401;SHT31;75540;50.000;7.360;2024-02-04T12:11:23;7.56;97.92
39401;SHT31;75540;50.000;7.360;2024-02-04T12:13:52;7.54;97.85
39401;SHT31;75540;50.000;7.360;2024-02-04T12:16:21;7.55;97.86
39401;SHT31;75540;50.000;7.360;2024-02-04T12:18:50;7.55;97.95
39401;SHT31;75540;50.000;7.360;2024-02-04T12:21:20;7.63;97.93
39401;SHT31;75540;50.000;7.360;2024-02-04T12:23:49;7.66;97.89
39401;SHT31;75540;50.000;7.360;2024-02-04T12:26:17;7.61;97.85
39401;SHT31;75540;50.000;7.360;2024-02-04T12:28:45;7.65;97.86
39401;SHT31;75540;50.000;7.360;2024-02-04T12:31:16;7.63;97.72
39401;SHT31;75540;50.000;7.360;2024-02-04T12:33:53;7.69;97.80
39401;SHT31;75540;50.000;7.360;2024-02-04T12:36:27;7.72;97.72
39401;SHT31;75540;50.000;7.360;2024-02-04T12:38:57;7.66;97.49
39401;SHT31;75540;50.000;7.360;2024-02-04T12:41:25;7.72;97.74
39401;SHT31;75540;50.000;7.360;2024-02-04T12:43:55;7.71;97.68
39401;SHT31;75540;50.000;7.360;2024-02-04T12:46:25;7.78;97.65
39401;SHT31;75540;50.000;7.360;2024-02-04T12:48:57;7.68;97.49
39401;SHT31;75540;50.000;7.360;2024-02-04T12:51:32;7.59;97.72
39401;SHT31;75540;50.000;7.360;2024-02-04T12:54:05;7.65;97.84
39401;SHT31;75540;50.000;7.360;2024-02-04T12:56:40;7.62;97.77
39401;SHT31;75540;50.000;7.360;2024-02-04T12:59:09;7.61;97.89
39401;SHT31;75540;50.000;7.360;2024-02-04T13:01:38;7.62;97.95
39401;SHT31;75540;50.000;7.360;2024-02-04T13:04:06;7.56;97.90
39401;SHT31;75540;50.000;7.360;2024-02-04T13:06:39;7.59;98.06
39401;SHT31;75540;50.000;7.360;2024-02-04T13:09:08;7.56;98.00
39401;SHT31;75540;50.000;7.360;2024-02-04T13:11:36;7.54;98.03
39401;SHT31;75540;50.000;7.360;2024-02-04T13:14:04;7.59;97.95
39401;SHT31;75540;50.000;7.360;2024-02-04T13:16:33;7.55;97.80
39401;SHT31;75540;50.000;7.360;2024-02-04T13:19:03;7.54;97.84
39401;SHT31;75540;50.000;7.360;2024-02-04T13:21:32;7.58;97.94
39401;SHT31;75540;50.000;7.360;2024-02-04T13:24:02;7.56;97.90
39401;SHT31;75540;50.000;7.360;2024-02-04T13:26:31;7.55;97.87
39401;SHT31;75540;50.000;7.360;2024-02-04T13:28:59;7.56;98.01
39401;SHT31;75540;50.000;7.360;2024-02-04T13:31:27;7.55;97.99
39401;SHT31;75540;50.000;7.360;2024-02-04T13:33:56;7.59;98.03
39401;SHT31;75540;50.000;7.360;2024-02-04T13:36:24;7.55;97.86
39401;SHT31;75540;50.000;7.360;2024-02-04T13:38:53;7.58;98.04
39401;SHT31;75540;50.000;7.360;2024-02-04T13:41:22;7.59;97.95
39401;SHT31;75540;50.000;7.360;2024-02-04T13:43:51;7.62;97.97
39401;SHT31;75540;50.000;7.360;2024-02-04T13:46:19;7.58;97.98
39401;SHT31;75540;50.000;7.360;2024-02-04T13:48:49;7.65;97.85
39401;SHT31;75540;50.000;7.360;2024-02-04T13:51:18;7.65;97.66
39401;SHT31;75540;50.000;7.360;2024-02-04T13:54:06;7.63;97.58
39401;SHT31;75540;50.000;7.360;2024-02-04T13:56:40;7.68;97.61
39401;SHT31;75540;50.000;7.360;2024-02-04T13:59:08;7.65;97.56
39401;SHT31;75540;50.000;7.360;2024-02-04T14:01:36;7.63;97.49
39401;SHT31;75540;50.000;7.360;2024-02-04T14:04:05;7.66;97.57
39401;SHT31;75540;50.000;7.360;2024-02-04T14:06:35;7.63;97.39
39401;SHT31;75540;50.000;7.360;2024-02-04T14:09:03;7.68;97.22
39401;SHT31;75540;50.000;7.360;2024-02-04T14:11:32;7.66;97.22
39401;SHT31;75540;50.000;7.360;2024-02-04T14:14:02;7.73;97.18
39401;SHT31;75540;50.000;7.360;2024-02-04T14:16:30;7.73;97.04
39401;SHT31;75540;50.000;7.360;2024-02-04T14:18:59;7.71;96.82
39401;SHT31;75540;50.000;7.360;2024-02-04T14:21:27;7.79;96.86
39401;SHT31;75540;50.000;7.360;2024-02-04T14:23:56;7.81;96.76
39401;SHT31;75540;50.000;7.360;2024-02-04T14:26:24;7.82;96.80
39401;SHT31;75540;50.000;7.360;2024-02-04T14:28:53;7.83;96.80
39401;SHT31;75540;50.000;7.360;2024-02-04T14:31:22;7.79;96.42
39401;SHT31;75540;50.000;7.360;2024-02-04T14:33:51;7.81;96.49
39401;SHT31;75540;50.000;7.360;2024-02-04T14:36:19;7.82;96.45
39401;SHT31;75540;50.000;7.360;2024-02-04T14:38:47;7.81;96.53
39401;SHT31;75540;50.000;7.360;2024-02-04T14:41:16;7.83;96.70
39401;SHT31;75540;50.000;7.360;2024-02-04T14:43:44;7.82;96.66
39401;SHT31;75540;50.000;7.360;2024-02-04T14:46:13;7.82;96.75
39401;SHT31;75540;50.000;7.360;2024-02-04T14:48:42;7.83;96.79
39401;SHT31;75540;50.000;7.360;2024-02-04T14:51:11;7.79;96.80
39401;SHT31;75540;50.000;7.360;2024-02-04T14:53:39;7.82;96.83
39401;SHT31;75540;50.000;7.360;2024-02-04T14:56:08;7.82;96.82
39401;SHT31;75540;50.000;7.360;2024-02-04T14:58:36;7.81;96.96
39401;SHT31;75540;50.000;7.360;2024-02-04T15:01:05;7.75;96.94
39401;SHT31;75540;50.000;7.360;2024-02-04T15:03:33;7.79;97.14
39401;SHT31;75540;50.000;7.360;2024-02-04T15:06:04;7.76;97.15
39401;SHT31;75540;50.000;7.360;2024-02-04T15:08:32;7.73;97.22
39401;SHT31;75540;50.000;7.360;2024-02-04T15:11:01;7.73;97.41
39401;SHT31;75540;50.000;7.360;2024-02-04T15:13:30;7.71;97.42
39401;SHT31;75540;50.000;7.360;2024-02-04T15:16:01;7.71;97.43
39401;SHT31;75540;50.000;7.360;2024-02-04T15:18:30;7.72;97.54
39401;SHT31;75540;50.000;7.360;2024-02-04T15:20:59;7.68;97.54
39401;SHT31;75540;50.000;7.360;2024-02-04T15:23:33;7.71;97.58
39401;SHT31;75540;50.000;7.360;2024-02-04T15:26:04;7.73;97.60
39401;SHT31;75540;50.000;7.360;2024-02-04T15:28:35;7.73;97.61
39401;SHT31;75540;50.000;7.360;2024-02-04T15:31:05;7.68;97.63
39401;SHT31;75540;50.000;7.360;2024-02-04T15:33:37;7.68;97.62
39401;SHT31;75540;50.000;7.360;2024-02-04T15:36:07;7.68;97.65
39401;SHT31;75540;50.000;7.360;2024-02-04T15:38:37;7.71;97.73
39401;SHT31;75540;50.000;7.360;2024-02-04T15:41:06;7.72;97.68
39401;SHT31;75540;50.000;7.360;2024-02-04T15:43:35;7.66;97.76
39401;SHT31;75540;50.000;7.360;2024-02-04T15:46:07;7.68;97.76
39401;SHT31;75540;50.000;7.360;2024-02-04T15:48:38;7.69;97.63
39401;SHT31;75540;50.000;7.360;2024-02-04T15:51:08;7.69;97.67
39401;SHT31;75540;50.000;7.360;2024-02-04T15:53:38;7.69;97.72
39401;SHT31;75540;50.000;7.360;2024-02-04T15:56:08;7.68;97.80
39401;SHT31;75540;50.000;7.360;2024-02-04T15:58:39;7.69;97.74
39401;SHT31;75540;50.000;7.360;2024-02-04T16:01:10;7.65;97.77